sensor_id;sensor_type;location;lat;lon;timestamp;pressure;altitude;pressure_sealevel;temperature;humidity
57594;BME280;43423;46.510;6.686;2023-01-30T00:00:21;97288.41;;;0.27;70.26
57594;BME280;43423;46.510;6.686;2023-01-30T00:03:07;97283.78;;;0.24;70.58
57594;BME280;43423;46.510;6.686;2023-01-30T00:05:33;97284.19;;;0.19;70.76
57594;BME280;43423;46.510;6.686;2023-01-30T00:07:58;97280.69;;;0.22;71.24
57594;BME280;43423;46.510;6.686;2023-01-30T00:10:24;97279.91;;;0.29;71.37
57594;BME280;43423;46.510;6.686;2023-01-30T00:12:49;97287.22;;;0.36;71.37
57594;BME280;43423;46.510;6.686;2023-01-30T00:15:15;97274.88;;;0.35;71.34
57594;BME280;43423;46.510;6.686;2023-01-30T00:17:40;97272.16;;;0.31;71.78
57594;BME280;43423;46.510;6.686;2023-01-30T00:20:06;97273.34;;;0.26;71.66
57594;BME280;43423;46.510;6.686;2023-01-30T00:22:31;97284.91;;;0.31;71.56
57594;BME280;43423;46.510;6.686;2023-01-30T00:24:57;97277.59;;;0.27;72.57
57594;BME280;43423;46.510;6.686;2023-01-30T00:27:22;97278.75;;;0.26;71.81
57594;BME280;43423;46.510;6.686;2023-01-30T00:29:48;97278.34;;;0.32;71.32
57594;BME280;43423;46.510;6.686;2023-01-30T00:32:13;97276.03;;;0.34;71.58
57594;BME280;43423;46.510;6.686;2023-01-30T00:34:39;97278.75;;;0.34;71.31
57594;BME280;43423;46.510;6.686;2023-01-30T00:37:04;97277.97;;;0.30;71.31
57594;BME280;43423;46.510;6.686;2023-01-30T00:39:30;97272.19;;;0.27;71.34
57594;BME280;43423;46.510;6.686;2023-01-30T00:41:55;97268.69;;;0.31;70.25
57594;BME280;43423;46.510;6.686;2023-01-30T00:44:40;97264.06;;;0.35;71.29
57594;BME280;43423;46.510;6.686;2023-01-30T00:47:24;97261.75;;;0.33;71.09
57594;BME280;43423;46.510;6.686;2023-01-30T00:49:49;97265.19;;;0.37;70.85
57594;BME280;43423;46.510;6.686;2023-01-30T00:52:15;97274.47;;;0.36;71.21
57594;BME280;43423;46.510;6.686;2023-01-30T00:54:40;97267.91;;;0.34;71.45
57594;BME280;43423;46.510;6.686;2023-01-30T00:57:06;97274.88;;;0.35;70.58
57594;BME280;43423;46.510;6.686;2023-01-30T00:59:31;97276.00;;;0.37;70.56
57594;BME280;43423;46.510;6.686;2023-01-30T01:01:57;97280.66;;;0.40;70.41
57594;BME280;43423;46.510;6.686;2023-01-30T01:04:22;97288.75;;;0.37;71.08
57594;BME280;43423;46.510;6.686;2023-01-30T01:06:48;97283.72;;;0.39;70.54
57594;BME280;43423;46.510;6.686;2023-01-30T01:09:14;97272.53;;;0.40;71.17
57594;BME280;43423;46.510;6.686;2023-01-30T01:11:39;97267.91;;;0.37;71.34
57594;BME280;43423;46.510;6.686;2023-01-30T01:14:05;97276.00;;;0.37;71.38
57594;BME280;43423;46.510;6.686;2023-01-30T01:16:32;97273.69;;;0.36;71.31
57594;BME280;43423;46.510;6.686;2023-01-30T01:18:58;97270.97;;;0.39;71.17
57594;BME280;43423;46.510;6.686;2023-01-30T01:21:24;97267.13;;;0.37;71.35
57594;BME280;43423;46.510;6.686;2023-01-30T01:23:57;97275.59;;;0.46;70.95
57594;BME280;43423;46.510;6.686;2023-01-30T01:26:23;97267.88;;;0.48;70.44
57594;BME280;43423;46.510;6.686;2023-01-30T01:28:53;97262.47;;;0.48;70.45
57594;BME280;43423;46.510;6.686;2023-01-30T01:31:18;97267.09;;;0.44;70.86
57594;BME280;43423;46.510;6.686;2023-01-30T01:33:44;97254.75;;;0.36;71.07
57594;BME280;43423;46.510;6.686;2023-01-30T01:36:09;97262.47;;;0.48;70.09
57594;BME280;43423;46.510;6.686;2023-01-30T01:38:35;97261.69;;;0.51;70.09
57594;BME280;43423;46.510;6.686;2023-01-30T01:41:00;97251.66;;;0.48;70.61
57594;BME280;43423;46.510;6.686;2023-01-30T01:43:27;97260.91;;;0.47;70.98
57594;BME280;43423;46.510;6.686;2023-01-30T01:46:12;97260.13;;;0.50;70.51
57594;BME280;43423;46.510;6.686;2023-01-30T01:49:04;97262.47;;;0.48;70.36
57594;BME280;43423;46.510;6.686;2023-01-30T01:51:39;97251.25;;;0.49;69.92
57594;BME280;43423;46.510;6.686;2023-01-30T01:54:10;97255.88;;;0.52;70.69
57594;BME280;43423;46.510;6.686;2023-01-30T01:56:39;97249.28;;;0.53;69.83
57594;BME280;43423;46.510;6.686;2023-01-30T01:59:13;97248.16;;;0.51;70.42
57594;BME280;43423;46.510;6.686;2023-01-30T02:01:41;97252.41;;;0.55;70.96
57594;BME280;43423;46.510;6.686;2023-01-30T02:04:07;97225.34;;;0.45;70.22
57594;BME280;43423;46.510;6.686;2023-01-30T02:06:37;97253.91;;;0.60;70.80
57594;BME280;43423;46.510;6.686;2023-01-30T02:09:06;97253.56;;;0.51;71.36
57594;BME280;43423;46.510;6.686;2023-01-30T02:11:37;97262.47;;;0.48;71.42
57594;BME280;43423;46.510;6.686;2023-01-30T02:14:06;97256.25;;;0.51;71.10
57594;BME280;43423;46.510;6.686;2023-01-30T02:16:32;97265.53;;;0.46;72.54
57594;BME280;43423;46.510;6.686;2023-01-30T02:18:58;97256.31;;;0.40;71.79
57594;BME280;43423;46.510;6.686;2023-01-30T02:21:32;97255.53;;;0.40;71.76
57594;BME280;43423;46.510;6.686;2023-01-30T02:24:25;97254.75;;;0.36;72.77
57594;BME280;43423;46.510;6.686;2023-01-30T02:30:09;97251.69;;;0.30;72.36
57594;BME280;43423;46.510;6.686;2023-01-30T02:33:19;97255.13;;;0.38;72.36
57594;BME280;43423;46.510;6.686;2023-01-30T02:36:09;97247.78;;;0.45;71.37
57594;BME280;43423;46.510;6.686;2023-01-30T02:39:01;97255.50;;;0.47;71.42
57594;BME280;43423;46.510;6.686;2023-01-30T02:46:39;97261.66;;;0.58;71.20
57594;BME280;43423;46.510;6.686;2023-01-30T02:49:15;97259.72;;;0.55;70.79
57594;BME280;43423;46.510;6.686;2023-01-30T02:51:45;97256.25;;;0.58;70.40
57594;BME280;43423;46.510;6.686;2023-01-30T02:54:13;97263.19;;;0.59;71.27
57594;BME280;43423;46.510;6.686;2023-01-30T02:56:55;97263.22;;;0.55;71.82
57594;BME280;43423;46.510;6.686;2023-01-30T02:59:29;97277.88;;;0.54;71.80
57594;BME280;43423;46.510;6.686;2023-01-30T03:02:23;97281.75;;;0.53;71.67
57594;BME280;43423;46.510;6.686;2023-01-30T03:10:28;97284.06;;;0.55;72.54
57594;BME280;43423;46.510;6.686;2023-01-30T03:15:58;97298.03;;;0.50;72.83
57594;BME280;43423;46.510;6.686;2023-01-30T03:18:26;97320.81;;;0.56;72.44
57594;BME280;43423;46.510;6.686;2023-01-30T03:20:52;97318.88;;;0.57;72.99
57594;BME280;43423;46.510;6.686;2023-01-30T03:23:18;97328.94;;;0.52;72.63
57594;BME280;43423;46.510;6.686;2023-01-30T03:25:45;97326.59;;;0.54;72.29
57594;BME280;43423;46.510;6.686;2023-01-30T03:28:13;97310.00;;;0.56;72.21
57594;BME280;43423;46.510;6.686;2023-01-30T03:30:40;97305.31;;;0.60;72.34
57594;BME280;43423;46.510;6.686;2023-01-30T03:33:05;97305.34;;;0.57;72.31
57594;BME280;43423;46.510;6.686;2023-01-30T03:35:31;97325.06;;;0.57;72.61
57594;BME280;43423;46.510;6.686;2023-01-30T03:37:57;97326.19;;;0.60;72.29
57594;BME280;43423;46.510;6.686;2023-01-30T03:40:23;97310.75;;;0.57;72.93
57594;BME280;43423;46.510;6.686;2023-01-30T03:42:49;97312.69;;;0.56;73.09
57594;BME280;43423;46.510;6.686;2023-01-30T03:45:14;97328.88;;;0.63;72.88
57594;BME280;43423;46.510;6.686;2023-01-30T03:47:40;97331.22;;;0.61;72.71
57594;BME280;43423;46.510;6.686;2023-01-30T03:50:05;97335.09;;;0.53;73.04
57594;BME280;43423;46.510;6.686;2023-01-30T03:52:34;97341.31;;;0.57;72.51
57594;BME280;43423;46.510;6.686;2023-01-30T03:54:59;97331.63;;;0.56;72.70
57594;BME280;43423;46.510;6.686;2023-01-30T03:57:25;97339.72;;;0.60;72.48
57594;BME280;43423;46.510;6.686;2023-01-30T03:59:50;97347.06;;;0.63;72.17
57594;BME280;43423;46.510;6.686;2023-01-30T04:02:16;97343.59;;;0.62;72.74
57594;BME280;43423;46.510;6.686;2023-01-30T04:04:46;97336.22;;;0.63;72.86
57594;BME280;43423;46.510;6.686;2023-01-30T04:07:12;97343.59;;;0.62;71.55
57594;BME280;43423;46.510;6.686;2023-01-30T04:09:37;97347.47;;;0.61;72.77
57594;BME280;43423;46.510;6.686;2023-01-30T04:12:03;97338.16;;;0.62;72.86
57594;BME280;43423;46.510;6.686;2023-01-30T04:14:28;97329.69;;;0.60;71.39
57594;BME280;43423;46.510;6.686;2023-01-30T04:16:54;97313.84;;;0.59;71.23
57594;BME280;43423;46.510;6.686;2023-01-30T04:19:19;97315.41;;;0.56;72.29
57594;BME280;43423;46.510;6.686;2023-01-30T04:21:45;97311.94;;;0.48;71.87
57594;BME280;43423;46.510;6.686;2023-01-30T04:24:11;97321.22;;;0.51;72.13
57594;BME280;43423;46.510;6.686;2023-01-30T04:26:36;97324.69;;;0.51;72.02
57594;BME280;43423;46.510;6.686;2023-01-30T04:29:02;97327.38;;;0.51;72.32
57594;BME280;43423;46.510;6.686;2023-01-30T04:31:28;97318.09;;;0.52;72.64
57594;BME280;43423;46.510;6.686;2023-01-30T04:33:53;97304.97;;;0.51;72.39
57594;BME280;43423;46.510;6.686;2023-01-30T04:36:19;97297.25;;;0.39;71.99
57594;BME280;43423;46.510;6.686;2023-01-30T04:38:44;97298.81;;;0.36;72.89
57594;BME280;43423;46.510;6.686;2023-01-30T04:41:10;97301.56;;;0.25;73.17
57594;BME280;43423;46.510;6.686;2023-01-30T04:43:35;97298.44;;;0.23;74.01
57594;BME280;43423;46.510;6.686;2023-01-30T04:46:01;97294.22;;;0.19;74.56
57594;BME280;43423;46.510;6.686;2023-01-30T04:48:26;97302.72;;;0.07;74.41
57594;BME280;43423;46.510;6.686;2023-01-30T04:50:54;97295.78;;;0.09;74.46
57594;BME280;43423;46.510;6.686;2023-01-30T04:53:20;97289.59;;;0.12;74.18
57594;BME280;43423;46.510;6.686;2023-01-30T04:55:46;97292.31;;;-0.02;74.36
57594;BME280;43423;46.510;6.686;2023-01-30T04:58:13;97305.84;;;-0.09;74.58
57594;BME280;43423;46.510;6.686;2023-01-30T05:00:39;97304.31;;;0.01;74.31
57594;BME280;43423;46.510;6.686;2023-01-30T05:03:04;97315.09;;;0.11;74.48
57594;BME280;43423;46.510;6.686;2023-01-30T05:05:31;97298.50;;;0.16;74.25
57594;BME280;43423;46.510;6.686;2023-01-30T05:07:57;97298.06;;;0.21;74.61
57594;BME280;43423;46.510;6.686;2023-01-30T05:10:23;97296.53;;;0.27;74.13
57594;BME280;43423;46.510;6.686;2023-01-30T05:12:48;97276.47;;;0.18;74.79
57594;BME280;43423;46.510;6.686;2023-01-30T05:15:14;97269.47;;;0.27;74.25
57594;BME280;43423;46.510;6.686;2023-01-30T05:17:39;97266.41;;;0.18;73.71
57594;BME280;43423;46.510;6.686;2023-01-30T05:20:06;97262.94;;;0.11;73.74
57594;BME280;43423;46.510;6.686;2023-01-30T05:22:32;97267.97;;;0.05;74.65
57594;BME280;43423;46.510;6.686;2023-01-30T05:24:58;97264.88;;;-0.01;73.09
57594;BME280;43423;46.510;6.686;2023-01-30T05:27:24;97281.50;;;0.09;73.31
57594;BME280;43423;46.510;6.686;2023-01-30T05:29:49;97282.63;;;0.18;73.84
57594;BME280;43423;46.510;6.686;2023-01-30T05:32:16;97277.22;;;0.18;72.83
57594;BME280;43423;46.510;6.686;2023-01-30T05:34:43;97280.31;;;0.13;73.75
57594;BME280;43423;46.510;6.686;2023-01-30T05:37:09;97266.41;;;0.11;72.54
57594;BME280;43423;46.510;6.686;2023-01-30T05:39:35;97256.34;;;0.15;72.60
57594;BME280;43423;46.510;6.686;2023-01-30T05:42:01;97254.81;;;0.07;72.13
57594;BME280;43423;46.510;6.686;2023-01-30T05:44:26;97264.47;;;0.19;72.59
57594;BME280;43423;46.510;6.686;2023-01-30T05:46:52;97265.22;;;0.26;72.77
57594;BME280;43423;46.510;6.686;2023-01-30T05:49:17;97256.75;;;0.24;71.13
57594;BME280;43423;46.510;6.686;2023-01-30T05:51:43;97262.09;;;0.32;71.55
57594;BME280;43423;46.510;6.686;2023-01-30T05:54:08;97267.56;;;0.21;71.77
57594;BME280;43423;46.510;6.686;2023-01-30T05:56:34;97267.53;;;0.28;71.19
57594;BME280;43423;46.510;6.686;2023-01-30T05:59:00;97274.09;;;0.31;71.54
57594;BME280;43423;46.510;6.686;2023-01-30T06:01:27;97268.69;;;0.31;71.51
57594;BME280;43423;46.510;6.686;2023-01-30T06:03:53;97258.66;;;0.20;70.61
57594;BME280;43423;46.510;6.686;2023-01-30T06:06:19;97263.31;;;0.20;71.81
57594;BME280;43423;46.510;6.686;2023-01-30T06:08:45;97263.69;;;0.25;71.27
57594;BME280;43423;46.510;6.686;2023-01-30T06:11:13;97267.16;;;0.15;71.66
57594;BME280;43423;46.510;6.686;2023-01-30T06:13:39;97276.44;;;0.25;72.10
57594;BME280;43423;46.510;6.686;2023-01-30T06:16:06;97272.56;;;0.26;72.34
57594;BME280;43423;46.510;6.686;2023-01-30T06:18:32;97272.56;;;0.30;71.49
57594;BME280;43423;46.510;6.686;2023-01-30T06:20:58;97265.22;;;0.30;71.35
57594;BME280;43423;46.510;6.686;2023-01-30T06:23:24;97280.69;;;0.26;72.78
57594;BME280;43423;46.510;6.686;2023-01-30T06:25:50;97289.56;;;0.26;72.20
57594;BME280;43423;46.510;6.686;2023-01-30T06:28:16;97284.16;;;0.30;72.13
57594;BME280;43423;46.510;6.686;2023-01-30T06:30:42;97277.97;;;0.33;71.78
57594;BME280;43423;46.510;6.686;2023-01-30T06:33:09;97279.50;;;0.31;72.06
57594;BME280;43423;46.510;6.686;2023-01-30T06:35:38;97281.44;;;0.34;71.45
57594;BME280;43423;46.510;6.686;2023-01-30T06:38:04;97293.03;;;0.31;71.72
57594;BME280;43423;46.510;6.686;2023-01-30T06:40:30;97303.84;;;0.31;72.00
57594;BME280;43423;46.510;6.686;2023-01-30T06:42:56;97305.41;;;0.28;72.51
57594;BME280;43423;46.510;6.686;2023-01-30T06:45:21;97296.91;;;0.30;71.98
57594;BME280;43423;46.510;6.686;2023-01-30T06:47:48;97301.16;;;0.31;71.62
57594;BME280;43423;46.510;6.686;2023-01-30T06:50:16;97302.69;;;0.32;72.18
57594;BME280;43423;46.510;6.686;2023-01-30T06:52:43;97296.53;;;0.27;72.90
57594;BME280;43423;46.510;6.686;2023-01-30T06:55:10;97303.09;;;0.26;72.88
57594;BME280;43423;46.510;6.686;2023-01-30T06:57:37;97298.06;;;0.28;72.36
57594;BME280;43423;46.510;6.686;2023-01-30T07:00:04;97289.19;;;0.24;73.32
57594;BME280;43423;46.510;6.686;2023-01-30T07:02:31;97281.84;;;0.28;72.68
57594;BME280;43423;46.510;6.686;2023-01-30T07:05:04;97288.78;;;0.33;73.10
57594;BME280;43423;46.510;6.686;2023-01-30T07:07:30;97279.50;;;0.31;72.91
57594;BME280;43423;46.510;6.686;2023-01-30T07:09:56;97272.19;;;0.27;72.39
57594;BME280;43423;46.510;6.686;2023-01-30T07:12:23;97259.44;;;0.24;72.52
57594;BME280;43423;46.510;6.686;2023-01-30T07:14:49;97271.78;;;0.29;71.82
57594;BME280;43423;46.510;6.686;2023-01-30T07:17:15;97274.50;;;0.22;72.80
57594;BME280;43423;46.510;6.686;2023-01-30T07:19:44;97268.69;;;0.23;72.80
57594;BME280;43423;46.510;6.686;2023-01-30T07:22:10;97262.16;;;0.21;72.79
57594;BME280;43423;46.510;6.686;2023-01-30T07:24:36;97251.00;;;0.01;72.81
57594;BME280;43423;46.510;6.686;2023-01-30T07:27:01;97246.34;;;-0.02;72.95
57594;BME280;43423;46.510;6.686;2023-01-30T07:29:27;97282.66;;;0.11;73.57
57594;BME280;43423;46.510;6.686;2023-01-30T07:31:52;97309.69;;;0.18;73.77
57594;BME280;43423;46.510;6.686;2023-01-30T07:34:18;97326.28;;;0.20;74.20
57594;BME280;43423;46.510;6.686;2023-01-30T07:36:44;97323.19;;;0.22;73.29
57594;BME280;43423;46.510;6.686;2023-01-30T07:39:09;97312.72;;;0.31;73.04
57594;BME280;43423;46.510;6.686;2023-01-30T07:41:35;97330.53;;;0.28;72.69
57594;BME280;43423;46.510;6.686;2023-01-30T07:44:01;97341.34;;;0.32;72.87
57594;BME280;43423;46.510;6.686;2023-01-30T07:46:27;97340.56;;;0.32;72.10
57594;BME280;43423;46.510;6.686;2023-01-30T07:48:59;97335.94;;;0.32;72.47
57594;BME280;43423;46.510;6.686;2023-01-30T07:51:25;97349.84;;;0.27;72.00
57594;BME280;43423;46.510;6.686;2023-01-30T07:53:51;97342.88;;;0.22;71.71
57594;BME280;43423;46.510;6.686;2023-01-30T07:56:16;97351.38;;;0.32;73.08
57594;BME280;43423;46.510;6.686;2023-01-30T07:58:44;97354.13;;;0.24;72.08
57594;BME280;43423;46.510;6.686;2023-01-30T08:01:10;97359.13;;;0.15;71.52
57594;BME280;43423;46.510;6.686;2023-01-30T08:03:36;97361.81;;;0.22;72.42
57594;BME280;43423;46.510;6.686;2023-01-30T08:06:01;97371.47;;;0.23;71.93
57594;BME280;43423;46.510;6.686;2023-01-30T08:08:27;97378.84;;;0.34;71.66
57594;BME280;43423;46.510;6.686;2023-01-30T08:10:52;97371.88;;;0.29;71.84
57594;BME280;43423;46.510;6.686;2023-01-30T08:13:18;97359.91;;;0.19;72.17
57594;BME280;43423;46.510;6.686;2023-01-30T08:15:43;97358.75;;;0.06;71.34
57594;BME280;43423;46.510;6.686;2023-01-30T08:18:09;97371.50;;;0.02;72.61
57594;BME280;43423;46.510;6.686;2023-01-30T08:20:35;97372.66;;;-0.03;72.36
57594;BME280;43423;46.510;6.686;2023-01-30T08:23:00;97373.41;;;-0.09;72.24
57594;BME280;43423;46.510;6.686;2023-01-30T08:25:29;97378.44;;;-0.04;72.31
57594;BME280;43423;46.510;6.686;2023-01-30T08:27:55;97367.63;;;-0.01;71.70
57594;BME280;43423;46.510;6.686;2023-01-30T08:30:21;97343.69;;;0.05;72.31
57594;BME280;43423;46.510;6.686;2023-01-30T08:32:47;97341.38;;;0.04;72.32
57594;BME280;43423;46.510;6.686;2023-01-30T08:35:12;97351.03;;;0.08;72.71
57594;BME280;43423;46.510;6.686;2023-01-30T08:37:39;97356.44;;;0.08;72.39
57594;BME280;43423;46.510;6.686;2023-01-30T08:40:06;97363.00;;;0.07;71.89
57594;BME280;43423;46.510;6.686;2023-01-30T08:42:32;97355.28;;;0.09;71.86
57594;BME280;43423;46.510;6.686;2023-01-30T08:44:58;97354.50;;;0.26;72.05
57594;BME280;43423;46.510;6.686;2023-01-30T08:47:23;97372.66;;;0.33;71.62
57594;BME280;43423;46.510;6.686;2023-01-30T08:49:49;97372.25;;;0.42;72.64
57594;BME280;43423;46.510;6.686;2023-01-30T08:52:15;97369.88;;;0.54;72.38
57594;BME280;43423;46.510;6.686;2023-01-30T08:54:41;97360.59;;;0.63;72.09
57594;BME280;43423;46.510;6.686;2023-01-30T08:57:07;97372.25;;;0.49;71.16
57594;BME280;43423;46.510;6.686;2023-01-30T08:59:32;97372.63;;;0.51;70.99
57594;BME280;43423;46.510;6.686;2023-01-30T09:01:58;97371.50;;;0.34;70.98
57594;BME280;43423;46.510;6.686;2023-01-30T09:04:23;97370.72;;;0.41;71.30
57594;BME280;43423;46.510;6.686;2023-01-30T09:06:51;97361.41;;;0.49;71.06
57594;BME280;43423;46.510;6.686;2023-01-30T09:09:17;97349.81;;;0.52;71.08
57594;BME280;43423;46.510;6.686;2023-01-30T09:11:42;97354.03;;;0.60;71.42
57594;BME280;43423;46.510;6.686;2023-01-30T09:14:08;97370.25;;;0.71;70.51
57594;BME280;43423;46.510;6.686;2023-01-30T09:16:34;97379.53;;;0.73;69.90
57594;BME280;43423;46.510;6.686;2023-01-30T09:19:00;97387.63;;;0.80;70.51
57594;BME280;43423;46.510;6.686;2023-01-30T09:21:25;97381.06;;;0.81;69.62
57594;BME280;43423;46.510;6.686;2023-01-30T09:23:51;97377.53;;;0.92;70.16
57594;BME280;43423;46.510;6.686;2023-01-30T09:26:16;97378.34;;;0.81;69.10
57594;BME280;43423;46.510;6.686;2023-01-30T09:28:42;97387.63;;;0.80;69.42
57594;BME280;43423;46.510;6.686;2023-01-30T09:31:07;97385.69;;;0.81;70.06
57594;BME280;43423;46.510;6.686;2023-01-30T09:33:33;97382.59;;;0.82;70.36
57594;BME280;43423;46.510;6.686;2023-01-30T09:35:58;97391.53;;;0.72;70.51
57594;BME280;43423;46.510;6.686;2023-01-30T09:38:24;97391.56;;;0.58;70.59
57594;BME280;43423;46.510;6.686;2023-01-30T09:49:27;97384.59;;;0.64;71.58
57594;BME280;43423;46.510;6.686;2023-01-30T09:52:04;97400.03;;;0.74;71.43
57594;BME280;43423;46.510;6.686;2023-01-30T09:54:36;97390.72;;;0.82;70.88
57594;BME280;43423;46.510;6.686;2023-01-30T09:59:53;97399.16;;;1.02;71.52
57594;BME280;43423;46.510;6.686;2023-01-30T10:02:30;97399.13;;;1.13;70.47
57594;BME280;43423;46.510;6.686;2023-01-30T10:05:00;97393.69;;;1.20;70.94
57594;BME280;43423;46.510;6.686;2023-01-30T10:16:45;97413.81;;;1.19;69.81
57594;BME280;43423;46.510;6.686;2023-01-30T10:24:47;97416.91;;;1.21;69.88
57594;BME280;43423;46.510;6.686;2023-01-30T10:27:17;97424.66;;;1.16;69.98
57594;BME280;43423;46.510;6.686;2023-01-30T10:29:53;97424.69;;;1.08;70.71
57594;BME280;43423;46.510;6.686;2023-01-30T10:32:45;97431.59;;;1.27;70.33
57594;BME280;43423;46.510;6.686;2023-01-30T10:35:15;97430.00;;;1.37;69.64
57594;BME280;43423;46.510;6.686;2023-01-30T10:40:39;97435.78;;;1.39;68.68
57594;BME280;43423;46.510;6.686;2023-01-30T10:43:24;97433.44;;;1.48;68.10
57594;BME280;43423;46.510;6.686;2023-01-30T10:49:05;97431.69;;;1.86;68.22
57594;BME280;43423;46.510;6.686;2023-01-30T10:51:40;97435.72;;;2.23;66.23
57594;BME280;43423;46.510;6.686;2023-01-30T10:59:59;97447.28;;;2.27;65.62
57594;BME280;43423;46.510;6.686;2023-01-30T11:02:39;97444.25;;;2.21;66.09
57594;BME280;43423;46.510;6.686;2023-01-30T11:05:17;97446.47;;;2.34;66.59
57594;BME280;43423;46.510;6.686;2023-01-30T11:07:45;97457.34;;;2.78;65.62
57594;BME280;43423;46.510;6.686;2023-01-30T11:10:24;97452.63;;;2.86;63.20
57594;BME280;43423;46.510;6.686;2023-01-30T11:13:12;97454.41;;;3.00;63.53
57594;BME280;43423;46.510;6.686;2023-01-30T11:15:40;97449.66;;;3.07;63.85
57594;BME280;43423;46.510;6.686;2023-01-30T11:18:06;97451.81;;;3.27;62.30
57594;BME280;43423;46.510;6.686;2023-01-30T11:20:38;97459.59;;;3.25;61.99
57594;BME280;43423;46.510;6.686;2023-01-30T11:23:23;97441.53;;;3.42;62.12
57594;BME280;43423;46.510;6.686;2023-01-30T11:25:51;97427.88;;;3.76;62.49
57594;BME280;43423;46.510;6.686;2023-01-30T11:28:18;97412.25;;;3.83;60.38
57594;BME280;43423;46.510;6.686;2023-01-30T11:30:55;97412.41;;;3.73;60.73
57594;BME280;43423;46.510;6.686;2023-01-30T11:33:30;97405.53;;;3.64;60.56
57594;BME280;43423;46.510;6.686;2023-01-30T11:38:29;97381.19;;;3.81;60.43
57594;BME280;43423;46.510;6.686;2023-01-30T11:43:34;97382.78;;;3.78;60.78
57594;BME280;43423;46.510;6.686;2023-01-30T11:46:02;97382.19;;;4.17;61.16
57594;BME280;43423;46.510;6.686;2023-01-30T11:48:30;97382.50;;;4.23;60.96
57594;BME280;43423;46.510;6.686;2023-01-30T11:50:59;97394.13;;;4.24;59.35
57594;BME280;43423;46.510;6.686;2023-01-30T11:54:06;97387.72;;;4.10;60.02
57594;BME280;43423;46.510;6.686;2023-01-30T11:56:54;97375.28;;;4.13;60.08
57594;BME280;43423;46.510;6.686;2023-01-30T11:59:43;97374.84;;;4.38;58.85
57594;BME280;43423;46.510;6.686;2023-01-30T12:02:17;97368.22;;;4.39;58.93
57594;BME280;43423;46.510;6.686;2023-01-30T12:04:44;97359.81;;;4.30;58.97
57594;BME280;43423;46.510;6.686;2023-01-30T12:07:26;97337.56;;;4.35;59.69
57594;BME280;43423;46.510;6.686;2023-01-30T12:09:53;97336.50;;;4.52;59.04
57594;BME280;43423;46.510;6.686;2023-01-30T12:12:46;97324.69;;;4.59;58.94
57594;BME280;43423;46.510;6.686;2023-01-30T12:25:49;97317.50;;;5.08;57.61
57594;BME280;43423;46.510;6.686;2023-01-30T12:28:55;97324.06;;;5.30;57.62
57594;BME280;43423;46.510;6.686;2023-01-30T12:34:02;97312.06;;;5.44;56.43
57594;BME280;43423;46.510;6.686;2023-01-30T12:47:21;97308.97;;;5.78;55.13
57594;BME280;43423;46.510;6.686;2023-01-30T12:57:46;97280.16;;;6.10;53.71
57594;BME280;43423;46.510;6.686;2023-01-30T13:00:39;97280.53;;;5.76;55.64
57594;BME280;43423;46.510;6.686;2023-01-30T13:03:18;97288.47;;;5.54;56.73
57594;BME280;43423;46.510;6.686;2023-01-30T13:17:19;97277.97;;;5.69;55.24
57594;BME280;43423;46.510;6.686;2023-01-30T13:19:57;97269.38;;;5.70;55.48
57594;BME280;43423;46.510;6.686;2023-01-30T13:22:41;97254.97;;;5.70;55.62
57594;BME280;43423;46.510;6.686;2023-01-30T13:25:31;97268.19;;;5.55;55.74
57594;BME280;43423;46.510;6.686;2023-01-30T13:28:12;97264.59;;;5.42;55.29
57594;BME280;43423;46.510;6.686;2023-01-30T13:30:40;97268.44;;;5.60;56.30
57594;BME280;43423;46.510;6.686;2023-01-30T13:33:13;97266.28;;;5.84;55.69
57594;BME280;43423;46.510;6.686;2023-01-30T13:35:49;97255.38;;;5.84;55.51
57594;BME280;43423;46.510;6.686;2023-01-30T13:38:20;97255.38;;;6.33;54.69
57594;BME280;43423;46.510;6.686;2023-01-30T13:40:48;97267.59;;;6.58;53.60
57594;BME280;43423;46.510;6.686;2023-01-30T13:43:26;97277.50;;;6.52;54.78
57594;BME280;43423;46.510;6.686;2023-01-30T13:45:56;97272.56;;;6.47;53.85
57594;BME280;43423;46.510;6.686;2023-01-30T13:53:53;97272.31;;;6.70;54.11
57594;BME280;43423;46.510;6.686;2023-01-30T13:56:42;97273.56;;;6.53;54.54
57594;BME280;43423;46.510;6.686;2023-01-30T13:59:41;97282.28;;;6.48;54.35
57594;BME280;43423;46.510;6.686;2023-01-30T14:02:21;97268.44;;;6.26;54.75
57594;BME280;43423;46.510;6.686;2023-01-30T14:04:52;97260.75;;;6.21;55.17
57594;BME280;43423;46.510;6.686;2023-01-30T14:07:24;97277.88;;;6.37;55.72
57594;BME280;43423;46.510;6.686;2023-01-30T14:12:44;97280.75;;;5.85;55.79
57594;BME280;43423;46.510;6.686;2023-01-30T14:20:50;97274.47;;;5.52;57.73
57594;BME280;43423;46.510;6.686;2023-01-30T14:25:52;97276.34;;;5.02;58.53
57594;BME280;43423;46.510;6.686;2023-01-30T14:30:48;97273.69;;;5.35;57.37
57594;BME280;43423;46.510;6.686;2023-01-30T14:38:15;97287.28;;;5.71;56.85
57594;BME280;43423;46.510;6.686;2023-01-30T14:43:34;97290.84;;;5.68;57.41
57594;BME280;43423;46.510;6.686;2023-01-30T14:46:35;97284.38;;;5.46;57.73
57594;BME280;43423;46.510;6.686;2023-01-30T14:49:04;97296.41;;;5.28;58.69
57594;BME280;43423;46.510;6.686;2023-01-30T14:56:58;97280.13;;;5.09;58.84
57594;BME280;43423;46.510;6.686;2023-01-30T14:59:26;97281.78;;;5.02;59.17
57594;BME280;43423;46.510;6.686;2023-01-30T15:07:18;97285.63;;;5.41;58.64
57594;BME280;43423;46.510;6.686;2023-01-30T15:09:51;97295.75;;;5.24;58.93
57594;BME280;43423;46.510;6.686;2023-01-30T15:21:13;97292.84;;;4.56;61.26
57594;BME280;43423;46.510;6.686;2023-01-30T15:26:32;97292.19;;;4.48;61.33
57594;BME280;43423;46.510;6.686;2023-01-30T15:29:24;97292.84;;;4.56;61.46
57594;BME280;43423;46.510;6.686;2023-01-30T15:32:17;97290.16;;;4.32;61.48
57594;BME280;43423;46.510;6.686;2023-01-30T15:34:52;97282.56;;;4.43;61.74
57594;BME280;43423;46.510;6.686;2023-01-30T15:42:43;97294.28;;;4.40;62.68
57594;BME280;43423;46.510;6.686;2023-01-30T15:50:34;97291.47;;;4.24;62.35
57594;BME280;43423;46.510;6.686;2023-01-30T15:53:01;97287.97;;;4.24;62.39
57594;BME280;43423;46.510;6.686;2023-01-30T15:55:34;97294.16;;;4.04;63.09
57594;BME280;43423;46.510;6.686;2023-01-30T15:58:09;97300.63;;;3.87;64.60
57594;BME280;43423;46.510;6.686;2023-01-30T16:00:43;97294.38;;;3.90;64.16
57594;BME280;43423;46.510;6.686;2023-01-30T16:03:39;97303.72;;;3.89;64.19
57594;BME280;43423;46.510;6.686;2023-01-30T16:06:05;97308.78;;;3.87;64.78